Time;durP1;ratioP1;P1;durP2;ratioP2;P2;SDS_P1;SDS_P2;PMS_P1;PMS_P2;Temp;Humidity;BMP_temperature;BMP_pressure;BME280_temperature;BME280_humidity;BME280_pressure;Samples;Min_cycle;Max_cycle;Signal;HPM_P1;HPM_P2
2022/03/13 00:01:55;;;;;;;19.80;12.70;;;1.50;35.00;;;;;;6249907;28;20490;-65
2022/03/13 00:05:00;;;;;;;18.83;14.30;;;1.60;35.10;;;;;;6249475;28;20979;-64
2022/03/13 00:08:05;;;;;;;16.43;12.60;;;1.50;35.00;;;;;;6249540;28;20475;-66
2022/03/13 00:11:17;;;;;;;15.97;12.30;;;1.50;35.10;;;;;;6249547;28;20546;-66
2022/03/13 00:14:24;;;;;;;15.00;13.27;;;1.50;35.40;;;;;;6249891;28;20479;-66
2022/03/13 00:17:29;;;;;;;14.80;12.57;;;1.40;35.50;;;;;;6250327;28;20486;-67
2022/03/13 00:20:33;;;;;;;23.43;13.60;;;1.40;35.70;;;;;;6249910;28;20483;-66
2022/03/13 00:23:36;;;;;;;15.43;13.00;;;1.40;35.70;;;;;;6249758;28;20467;-66
2022/03/13 00:26:39;;;;;;;16.00;12.37;;;1.30;35.70;;;;;;6249606;28;20483;-66
2022/03/13 00:29:42;;;;;;;17.00;12.80;;;1.30;35.70;;;;;;6249415;28;20494;-66
2022/03/13 00:32:47;;;;;;;15.87;12.50;;;1.20;35.60;;;;;;6249646;28;20471;-66
2022/03/13 00:35:50;;;;;;;16.07;12.37;;;1.20;35.50;;;;;;6249679;28;20480;-65
2022/03/13 00:38:53;;;;;;;17.13;14.13;;;1.20;35.60;;;;;;6254044;28;20467;-65
2022/03/13 00:41:56;;;;;;;14.93;12.97;;;1.10;35.50;;;;;;6253725;28;20770;-66
2022/03/13 00:44:59;;;;;;;15.73;11.93;;;1.10;35.90;;;;;;6253894;28;20470;-65
2022/03/13 00:48:04;;;;;;;16.50;14.10;;;1.10;36.30;;;;;;6253631;28;20498;-66
2022/03/13 00:51:08;;;;;;;15.97;13.10;;;1.00;36.50;;;;;;6249218;28;20463;-65
2022/03/13 00:54:11;;;;;;;16.30;11.50;;;1.00;36.60;;;;;;6254206;28;20501;-65
2022/03/13 00:57:14;;;;;;;20.17;13.83;;;1.00;36.60;;;;;;6253780;28;20513;-66
2022/03/13 01:00:18;;;;;;;16.57;12.33;;;1.00;36.90;;;;;;6253514;28;20930;-66
2022/03/13 01:03:48;;;;;;;16.33;13.20;;;1.00;37.30;;;;;;6253859;28;20467;-65
2022/03/13 01:06:51;;;;;;;13.80;12.30;;;0.90;37.30;;;;;;6253580;28;20475;-65
2022/03/13 01:09:54;;;;;;;16.17;13.40;;;0.90;37.20;;;;;;6253206;28;20963;-65
2022/03/13 01:12:57;;;;;;;15.60;12.47;;;0.90;37.20;;;;;;6253727;28;20471;-64
2022/03/13 01:16:11;;;;;;;14.07;12.67;;;0.80;37.40;;;;;;6252923;28;20471;-65
2022/03/13 01:19:15;;;;;;;18.37;13.50;;;0.80;37.50;;;;;;6253379;28;20481;-64
2022/03/13 01:22:19;;;;;;;13.60;10.83;;;0.70;37.80;;;;;;6253409;28;20483;-63
2022/03/13 01:25:22;;;;;;;14.73;12.07;;;0.70;39.70;;;;;;6255508;28;20837;-65
2022/03/13 01:28:25;;;;;;;15.40;12.90;;;0.70;39.70;;;;;;6254370;28;20498;-65
2022/03/13 01:31:30;;;;;;;16.30;13.07;;;0.70;38.60;;;;;;6254509;28;20816;-64
2022/03/13 01:34:44;;;;;;;20.03;13.70;;;0.70;38.30;;;;;;6254038;28;20468;-65
2022/03/13 01:37:47;;;;;;;16.77;13.37;;;0.70;38.20;;;;;;6254776;28;20471;-64
2022/03/13 01:40:51;;;;;;;14.43;12.73;;;0.60;38.20;;;;;;6252601;28;20552;-63
2022/03/13 01:43:54;;;;;;;14.60;11.83;;;0.70;38.30;;;;;;6252887;28;20487;-63
2022/03/13 01:46:57;;;;;;;19.40;12.97;;;0.70;38.30;;;;;;6253101;28;20483;-62
2022/03/13 01:50:02;;;;;;;15.23;12.23;;;0.60;38.90;;;;;;6252342;28;20617;-62
2022/03/13 01:53:05;;;;;;;17.73;13.00;;;0.60;38.30;;;;;;6252948;28;20815;-62
2022/03/13 01:56:09;;;;;;;16.30;12.90;;;0.60;38.20;;;;;;6248099;28;20471;-64
2022/03/13 01:59:14;;;;;;;18.43;13.03;;;0.60;38.30;;;;;;6252112;28;20823;-63
2022/03/13 02:02:17;;;;;;;16.23;12.07;;;0.50;38.10;;;;;;6252182;28;20467;-63
2022/03/13 02:05:29;;;;;;;15.63;11.60;;;0.50;38.30;;;;;;6252067;28;20494;-64
2022/03/13 02:08:37;;;;;;;15.67;12.10;;;0.50;38.20;;;;;;6251876;28;20483;-62
2022/03/13 02:11:41;;;;;;;14.07;11.73;;;0.40;38.00;;;;;;6252278;28;20471;-63
2022/03/13 02:14:45;;;;;;;17.47;11.73;;;0.40;38.10;;;;;;6251968;28;20480;-63
2022/03/13 02:17:48;;;;;;;13.83;11.87;;;0.30;38.10;;;;;;6251858;28;20463;-62
2022/03/13 02:20:52;;;;;;;13.93;11.47;;;0.40;38.20;;;;;;6251754;28;20960;-63
2022/03/13 02:24:01;;;;;;;13.93;11.27;;;0.30;38.30;;;;;;6251664;28;20462;-65
2022/03/13 02:27:06;;;;;;;17.67;13.20;;;0.40;38.60;;;;;;6251772;28;20435;-64
2022/03/13 02:30:10;;;;;;;15.17;10.70;;;0.30;38.40;;;;;;6251966;28;20476;-64
2022/03/13 02:33:17;;;;;;;15.80;13.70;;;0.30;38.30;;;;;;6251887;28;20459;-63
2022/03/13 02:36:30;;;;;;;20.23;12.83;;;0.30;38.40;;;;;;6251859;28;20471;-64
2022/03/13 02:39:37;;;;;;;12.13;10.87;;;0.20;38.40;;;;;;6251400;28;20575;-64
2022/03/13 02:42:41;;;;;;;17.10;11.83;;;0.20;38.70;;;;;;6251425;28;20482;-64
2022/03/13 02:45:44;;;;;;;18.97;13.10;;;0.20;38.90;;;;;;6251748;28;20850;-65
2022/03/13 02:48:48;;;;;;;17.10;12.07;;;0.10;38.90;;;;;;6251915;28;20471;-64
2022/03/13 02:51:53;;;;;;;15.00;11.27;;;0.10;38.90;;;;;;6251855;28;20483;-65
2022/03/13 02:54:58;;;;;;;14.17;10.87;;;0.10;38.80;;;;;;6251560;28;20529;-65
2022/03/13 02:58:01;;;;;;;13.30;11.00;;;0.00;38.80;;;;;;6247118;28;20828;-65
2022/03/13 03:01:04;;;;;;;13.40;12.00;;;-0.10;39.00;;;;;;6251391;28;20490;-65
2022/03/13 03:04:08;;;;;;;16.00;12.40;;;-0.20;39.90;;;;;;6251313;28;20530;-65
2022/03/13 03:07:11;;;;;;;18.07;11.43;;;-0.20;39.60;;;;;;6251000;28;20471;-65
2022/03/13 03:10:17;;;;;;;20.23;11.50;;;-0.20;39.60;;;;;;6251800;28;20478;-64
2022/03/13 03:13:20;;;;;;;14.47;11.57;;;-0.20;39.80;;;;;;6251642;28;20472;-65
2022/03/13 03:16:23;;;;;;;16.90;12.40;;;-0.20;39.90;;;;;;6251844;28;20979;-65
2022/03/13 03:19:27;;;;;;;14.60;11.23;;;-0.30;40.30;;;;;;6251238;28;20791;-64
2022/03/13 03:22:32;;;;;;;14.70;11.53;;;-0.20;40.60;;;;;;6251164;28;20471;-65
2022/03/13 03:25:37;;;;;;;14.47;10.50;;;-0.30;40.70;;;;;;6250899;28;20475;-65
2022/03/13 03:28:40;;;;;;;16.00;11.30;;;-0.30;40.60;;;;;;6251122;28;20483;-65
2022/03/13 03:31:45;;;;;;;15.23;12.10;;;-0.30;40.30;;;;;;6251212;28;20545;-64
2022/03/13 03:34:49;;;;;;;14.23;9.63;;;-0.30;40.20;;;;;;6251539;28;20467;-64
2022/03/13 03:37:54;;;;;;;13.00;11.50;;;-0.40;40.30;;;;;;6250568;28;20970;-64
2022/03/13 03:40:59;;;;;;;13.07;10.97;;;-0.40;40.30;;;;;;6250148;28;20487;-64
2022/03/13 03:44:02;;;;;;;16.60;11.70;;;-0.40;40.30;;;;;;6251016;28;20474;-64
2022/03/13 03:47:06;;;;;;;14.00;11.90;;;-0.40;40.40;;;;;;6250662;28;20483;-64
2022/03/13 03:50:10;;;;;;;13.77;11.00;;;-0.40;40.50;;;;;;6250895;28;20484;-64
2022/03/13 03:53:13;;;;;;;15.10;12.00;;;-0.40;40.40;;;;;;6250935;28;20478;-64
2022/03/13 03:56:17;;;;;;;15.23;11.80;;;-0.50;40.70;;;;;;6251200;28;20791;-64
2022/03/13 03:59:20;;;;;;;16.13;11.57;;;-0.50;40.90;;;;;;6251716;28;20468;-64
2022/03/13 04:02:23;;;;;;;16.40;12.23;;;-0.60;41.10;;;;;;6251673;28;20482;-64
2022/03/13 04:05:27;;;;;;;16.07;12.37;;;-0.50;41.40;;;;;;6235710;28;20821;-64
2022/03/13 04:08:30;;;;;;;12.87;10.03;;;-0.60;41.40;;;;;;6249392;28;20495;-64
2022/03/13 04:11:35;;;;;;;13.37;9.93;;;-0.50;42.10;;;;;;6251627;28;20475;-64
2022/03/13 04:14:39;;;;;;;15.33;11.57;;;-0.60;41.60;;;;;;6254962;28;20502;-64
2022/03/13 04:17:42;;;;;;;14.23;10.40;;;-0.70;41.50;;;;;;6255905;28;20812;-65
2022/03/13 04:20:45;;;;;;;14.40;11.60;;;-0.70;41.60;;;;;;6257504;28;20486;-65
2022/03/13 04:23:48;;;;;;;16.07;11.87;;;-0.70;41.80;;;;;;6257170;28;20471;-66
2022/03/13 04:26:53;;;;;;;14.97;12.40;;;-0.70;41.90;;;;;;6256010;28;20490;-66
2022/03/13 04:29:56;;;;;;;16.40;12.10;;;-0.80;42.00;;;;;;6254345;28;20490;-65
2022/03/13 04:33:00;;;;;;;13.97;11.90;;;-0.80;42.20;;;;;;6254390;28;20819;-65
2022/03/13 04:36:13;;;;;;;15.20;11.67;;;-0.80;42.20;;;;;;6254363;28;20444;-66
2022/03/13 04:39:17;;;;;;;14.50;11.40;;;-0.80;42.20;;;;;;6254617;28;20474;-66
2022/03/13 04:42:21;;;;;;;15.07;12.70;;;-0.80;42.20;;;;;;6256874;28;20474;-66
2022/03/13 04:45:26;;;;;;;16.30;13.80;;;-0.80;42.40;;;;;;6255260;28;20825;-65
2022/03/13 04:48:32;;;;;;;15.17;12.77;;;-0.80;42.40;;;;;;6254439;28;20479;-64
2022/03/13 04:51:36;;;;;;;18.07;14.13;;;-0.80;42.80;;;;;;6256037;28;20820;-64
2022/03/13 04:54:40;;;;;;;18.50;13.83;;;-0.80;42.30;;;;;;6255108;28;20490;-64
2022/03/13 04:57:44;;;;;;;16.50;13.20;;;-0.80;42.40;;;;;;6254524;28;20471;-65
2022/03/13 05:00:48;;;;;;;20.57;14.60;;;-0.80;42.60;;;;;;6254912;28;20506;-64
2022/03/13 05:03:51;;;;;;;19.90;13.97;;;-0.90;42.70;;;;;;6254618;28;20923;-65
2022/03/13 05:06:54;;;;;;;19.57;15.60;;;-0.90;42.80;;;;;;6245995;28;20490;-64
2022/03/13 05:09:57;;;;;;;16.13;14.07;;;-0.90;42.80;;;;;;6254990;28;20480;-64
2022/03/13 05:13:02;;;;;;;16.57;13.00;;;-1.00;42.80;;;;;;6256221;28;20795;-65
2022/03/13 05:16:05;;;;;;;16.40;11.20;;;-0.90;43.10;;;;;;6255780;28;21016;-65
2022/03/13 05:19:09;;;;;;;19.17;13.40;;;-1.10;43.20;;;;;;6256038;28;20476;-65
2022/03/13 05:22:13;;;;;;;17.80;12.07;;;-1.00;43.40;;;;;;6255473;28;20541;-65
2022/03/13 05:25:16;;;;;;;15.23;12.37;;;-1.00;43.40;;;;;;6255058;28;20546;-66
2022/03/13 05:28:20;;;;;;;13.90;12.37;;;-1.00;43.50;;;;;;6254702;28;20471;-64
2022/03/13 05:31:24;;;;;;;17.63;13.23;;;-1.10;43.40;;;;;;6253990;28;20475;-66
2022/03/13 05:34:28;;;;;;;15.07;11.90;;;-1.00;43.40;;;;;;6254020;28;20847;-65
2022/03/13 05:37:31;;;;;;;14.97;12.57;;;-1.10;43.20;;;;;;6253288;28;20856;-65
2022/03/13 05:40:35;;;;;;;15.20;12.17;;;-1.10;43.80;;;;;;6250042;28;20981;-65
2022/03/13 05:43:41;;;;;;;19.57;11.97;;;-1.10;44.00;;;;;;6252257;28;20467;-65
2022/03/13 05:46:44;;;;;;;17.30;13.47;;;-1.20;44.00;;;;;;6253408;28;20792;-65
2022/03/13 05:49:48;;;;;;;16.60;11.53;;;-1.20;44.70;;;;;;6252055;28;20483;-64
2022/03/13 05:52:52;;;;;;;14.73;11.90;;;-1.10;44.00;;;;;;6229306;28;20476;-65
2022/03/13 05:55:55;;;;;;;16.90;12.30;;;-1.10;43.70;;;;;;6245306;28;20480;-65
2022/03/13 05:59:00;;;;;;;22.20;12.03;;;-1.00;43.60;;;;;;6252833;28;20486;-65
2022/03/13 06:02:03;;;;;;;17.70;14.13;;;-0.90;43.60;;;;;;6252881;28;20482;-65
2022/03/13 06:05:09;;;;;;;15.80;12.67;;;-1.00;43.40;;;;;;6252001;28;20804;-65
2022/03/13 06:08:12;;;;;;;17.67;11.83;;;-1.00;43.60;;;;;;6252686;28;20804;-65
2022/03/13 06:11:15;;;;;;;13.60;11.40;;;-0.90;43.50;;;;;;6249988;28;20537;-65
2022/03/13 06:14:20;;;;;;;17.57;13.33;;;-0.90;43.30;;;;;;6253073;28;20494;-65
2022/03/13 06:17:23;;;;;;;16.20;12.27;;;-0.90;42.90;;;;;;6253405;28;20472;-66
2022/03/13 06:20:26;;;;;;;21.10;13.77;;;-0.80;42.90;;;;;;6253226;28;20529;-66
2022/03/13 06:23:30;;;;;;;14.97;12.43;;;-0.70;42.60;;;;;;6253020;28;20471;-66
2022/03/13 06:26:33;;;;;;;20.97;13.67;;;-0.60;42.40;;;;;;6253379;28;20479;-64
2022/03/13 06:29:38;;;;;;;14.00;12.60;;;-0.50;42.20;;;;;;6253241;28;20947;-65
2022/03/13 06:32:42;;;;;;;18.10;13.00;;;-0.40;42.20;;;;;;6253221;28;20483;-65
2022/03/13 06:35:45;;;;;;;18.77;13.20;;;-0.40;42.20;;;;;;6252266;28;20773;-64
2022/03/13 06:38:48;;;;;;;18.93;13.50;;;-0.30;41.90;;;;;;6252620;28;20483;-64
2022/03/13 06:41:53;;;;;;;20.97;15.23;;;-0.20;41.70;;;;;;6253178;28;20475;-64
2022/03/13 06:44:58;;;;;;;20.43;13.10;;;-0.10;41.40;;;;;;6252570;28;20470;-64
2022/03/13 06:48:01;;;;;;;16.50;13.20;;;0.00;41.20;;;;;;6252339;28;20455;-64
2022/03/13 06:51:04;;;;;;;16.33;13.33;;;0.00;41.10;;;;;;6252111;28;20483;-64
2022/03/13 06:54:07;;;;;;;20.27;13.30;;;0.10;41.00;;;;;;6252532;28;20521;-64
2022/03/13 06:57:10;;;;;;;20.00;13.20;;;0.20;40.80;;;;;;6252036;28;20505;-64
2022/03/13 07:00:15;;;;;;;14.67;11.50;;;0.30;41.30;;;;;;6251433;28;20468;-65
2022/03/13 07:03:23;;;;;;;19.43;12.33;;;0.40;40.70;;;;;;6251410;28;20570;-65
2022/03/13 07:06:26;;;;;;;15.50;12.70;;;0.60;40.50;;;;;;6251014;28;20471;-65
2022/03/13 07:09:30;;;;;;;19.40;12.33;;;0.70;40.00;;;;;;6251371;28;20483;-65
2022/03/13 07:12:33;;;;;;;13.30;10.87;;;0.90;39.80;;;;;;6247352;28;20497;-65
2022/03/13 07:15:39;;;;;;;24.43;12.47;;;1.00;39.40;;;;;;6251766;28;20478;-65
2022/03/13 07:18:42;;;;;;;14.30;11.33;;;1.30;39.10;;;;;;6251749;28;20479;-64
2022/03/13 07:21:45;;;;;;;13.50;12.20;;;1.50;38.60;;;;;;6251537;28;20544;-64
2022/03/13 07:24:48;;;;;;;16.77;12.57;;;1.80;38.80;;;;;;6251891;28;20485;-64
2022/03/13 07:27:52;;;;;;;15.23;11.77;;;2.10;37.70;;;;;;6251490;28;20467;-65
2022/03/13 07:30:56;;;;;;;15.00;11.43;;;3.50;37.00;;;;;;6233416;28;20983;-65
2022/03/13 07:34:00;;;;;;;16.67;12.60;;;6.70;33.90;;;;;;6251055;28;20966;-65
2022/03/13 07:37:03;;;;;;;18.97;14.60;;;10.10;28.70;;;;;;6251603;28;20481;-65
2022/03/13 07:40:07;;;;;;;16.13;12.67;;;13.10;25.30;;;;;;6250974;28;20473;-64
2022/03/13 07:43:10;;;;;;;15.07;12.40;;;15.10;22.50;;;;;;6250918;28;20919;-65
2022/03/13 07:46:15;;;;;;;14.90;13.27;;;14.40;20.80;;;;;;6251625;28;20467;-65
2022/03/13 07:49:18;;;;;;;17.07;12.83;;;13.10;21.20;;;;;;6249220;28;20481;-64
2022/03/13 07:52:21;;;;;;;15.30;13.70;;;11.70;22.00;;;;;;6250548;28;20466;-64
2022/03/13 07:55:25;;;;;;;14.47;12.27;;;10.80;22.80;;;;;;6248215;28;20481;-64
2022/03/13 07:58:28;;;;;;;14.60;12.33;;;11.30;23.40;;;;;;6250713;28;20481;-64
2022/03/13 08:01:33;;;;;;;15.13;13.37;;;14.40;22.40;;;;;;6250854;28;20540;-65
2022/03/13 08:04:36;;;;;;;14.97;13.60;;;17.40;19.40;;;;;;6250862;28;20475;-65
2022/03/13 08:07:40;;;;;;;14.87;13.57;;;20.10;17.80;;;;;;6250450;28;20525;-65
2022/03/13 08:10:43;;;;;;;15.20;13.90;;;22.20;16.90;;;;;;6250455;28;20247;-65
2022/03/13 08:13:48;;;;;;;16.07;14.37;;;23.70;15.10;;;;;;6251034;28;20720;-65
2022/03/13 08:16:52;;;;;;;18.57;15.60;;;25.20;14.30;;;;;;6250426;28;20243;-65
2022/03/13 08:19:56;;;;;;;16.03;14.73;;;26.20;13.50;;;;;;6236560;28;20263;-65
2022/03/13 08:22:59;;;;;;;18.60;16.93;;;27.40;12.70;;;;;;6250330;28;20235;-65
2022/03/13 08:26:02;;;;;;;17.90;16.40;;;28.20;12.00;;;;;;6250456;28;20238;-66
2022/03/13 08:29:06;;;;;;;19.57;17.87;;;29.30;11.70;;;;;;6250344;28;20571;-66
2022/03/13 08:32:11;;;;;;;18.60;16.90;;;29.90;10.90;;;;;;6250167;28;20232;-67
2022/03/13 08:35:14;;;;;;;18.10;16.50;;;30.90;10.40;;;;;;6250013;28;20239;-66
2022/03/13 08:38:17;;;;;;;18.50;16.87;;;31.40;10.30;;;;;;6250001;28;20228;-65
2022/03/13 08:41:20;;;;;;;17.40;15.90;;;31.30;9.80;;;;;;6249692;28;20733;-65
2022/03/13 08:44:24;;;;;;;18.10;16.67;;;31.20;9.70;;;;;;6250130;28;20235;-66
2022/03/13 08:47:28;;;;;;;17.60;16.15;;;31.80;9.60;;;;;;6249915;28;20235;-66
2022/03/13 08:50:32;;;;;;;19.10;17.30;;;32.20;9.50;;;;;;6249818;28;20286;-66
2022/03/13 08:53:35;;;;;;;18.05;16.65;;;32.80;9.30;;;;;;6249498;28;20540;-66
2022/03/13 08:56:38;;;;;;;19.58;17.98;;;33.60;9.10;;;;;;6250455;28;20672;-67
2022/03/13 08:59:41;;;;;;;20.45;18.83;;;33.90;8.80;;;;;;6253860;28;20293;-66
2022/03/13 09:02:46;;;;;;;19.83;18.13;;;33.70;8.60;;;;;;6255508;28;20235;-65
2022/03/13 09:05:49;;;;;;;19.58;17.98;;;33.50;8.80;;;;;;6255447;28;20244;-66
2022/03/13 09:08:52;;;;;;;19.63;17.90;;;34.10;8.80;;;;;;6253527;28;20240;-65
2022/03/13 09:11:56;;;;;;;19.55;17.95;;;35.00;8.50;;;;;;6254023;28;20232;-66
2022/03/13 09:15:00;;;;;;;20.88;19.27;;;34.90;8.20;;;;;;6253151;28;20633;-67
2022/03/13 09:18:05;;;;;;;20.02;18.42;;;34.40;8.40;;;;;;6253806;28;20219;-66
2022/03/13 09:21:08;;;;;;;20.67;19.00;;;35.00;8.30;;;;;;6245650;28;20216;-65
2022/03/13 09:24:11;;;;;;;20.60;18.90;;;34.70;8.30;;;;;;6256192;28;20227;-65
2022/03/13 09:27:19;;;;;;;20.60;19.00;;;34.00;8.20;;;;;;6253287;28;20223;-65
2022/03/13 09:30:22;;;;;;;20.95;19.35;;;33.90;8.30;;;;;;6252648;28;20602;-65
2022/03/13 09:33:27;;;;;;;20.15;18.55;;;33.50;8.40;;;;;;6252980;28;20717;-65
2022/03/13 09:36:30;;;;;;;19.73;18.33;;;33.30;8.50;;;;;;6253055;28;20710;-65
2022/03/13 09:39:34;;;;;;;22.10;20.27;;;34.90;8.30;;;;;;6252787;28;20228;-65
2022/03/13 09:42:37;;;;;;;20.67;19.08;;;36.10;7.90;;;;;;6253975;28;20691;-66
2022/03/13 09:45:40;;;;;;;19.70;18.00;;;36.10;7.70;;;;;;6255649;28;20734;-66
2022/03/13 09:48:45;;;;;;;20.92;19.13;;;37.30;7.60;;;;;;6254848;28;20231;-66
2022/03/13 09:51:48;;;;;;;20.48;18.65;;;38.40;7.30;;;;;;6253856;28;20687;-66
2022/03/13 09:54:51;;;;;;;20.58;19.00;;;39.00;7.10;;;;;;6252691;28;20250;-65
2022/03/13 09:57:55;;;;;;;20.42;18.90;;;39.20;6.80;;;;;;6253182;28;20239;-66
2022/03/13 10:00:58;;;;;;;20.95;19.45;;;38.00;6.90;;;;;;6255887;28;20228;-66
2022/03/13 10:04:04;;;;;;;21.40;19.75;;;37.50;7.10;;;;;;6254069;28;20242;-66
2022/03/13 10:07:11;;;;;;;21.75;20.05;;;36.50;7.20;;;;;;6252559;28;20664;-65
2022/03/13 10:10:15;;;;;;;21.70;20.05;;;37.20;7.00;;;;;;6251897;28;20612;-66
2022/03/13 10:13:35;;;;;;;22.77;21.08;;;37.10;7.10;;;;;;6252011;28;20239;-65
2022/03/13 10:16:40;;;;;;;21.95;20.15;;;38.00;7.00;;;;;;6252292;28;20285;-65
2022/03/13 10:19:44;;;;;;;21.88;20.05;;;37.70;6.90;;;;;;6252032;28;20565;-65
2022/03/13 10:22:49;;;;;;;22.17;20.38;;;38.40;6.90;;;;;;6251581;28;20224;-67
2022/03/13 10:25:53;;;;;;;21.92;20.23;;;38.60;6.70;;;;;;6247307;28;20231;-65
2022/03/13 10:28:57;;;;;;;21.05;19.35;;;37.70;7.00;;;;;;6252967;28;20247;-65
2022/03/13 10:32:01;;;;;;;22.40;20.55;;;38.20;6.80;;;;;;6252131;28;20663;-64
2022/03/13 10:35:06;;;;;;;20.15;18.75;;;39.60;6.60;;;;;;6251398;28;20271;-66
2022/03/13 10:38:18;;;;;;;20.92;19.42;;;40.40;6.20;;;;;;6248305;28;20231;-66
2022/03/13 10:41:42;;;;;;;21.75;20.05;;;40.80;6.00;;;;;;6250949;28;20251;-64
2022/03/13 10:44:52;;;;;;;22.10;20.50;;;41.20;6.10;;;;;;6250503;28;20228;-64
2022/03/13 10:48:12;;;;;;;20.38;18.95;;;41.20;6.10;;;;;;6250805;28;20557;-66
2022/03/13 10:51:17;;;;;;;21.60;19.98;;;41.20;5.70;;;;;;6249868;28;20845;-65
2022/03/13 10:54:28;;;;;;;20.95;19.48;;;39.80;6.00;;;;;;6250637;28;20552;-65
2022/03/13 10:57:32;;;;;;;21.60;20.10;;;39.50;6.10;;;;;;6250735;28;20220;-64
2022/03/13 11:00:35;;;;;;;21.92;20.35;;;40.70;6.00;;;;;;6249548;28;20231;-65
2022/03/13 11:03:48;;;;;;;23.83;22.00;;;41.70;6.00;;;;;;6250041;28;20628;-65
2022/03/13 11:06:53;;;;;;;20.48;18.98;;;42.30;5.70;;;;;;6250978;28;20244;-65
2022/03/13 11:09:56;;;;;;;20.27;18.83;;;41.30;5.20;;;;;;6250681;28;20231;-64
2022/03/13 11:13:01;;;;;;;20.75;19.17;;;40.80;5.70;;;;;;6251291;28;20558;-64
2022/03/13 11:16:05;;;;;;;20.73;19.13;;;40.90;5.70;;;;;;6250934;28;20231;-64
2022/03/13 11:19:08;;;;;;;21.58;19.77;;;41.70;5.60;;;;;;6250509;28;20563;-66
2022/03/13 11:22:16;;;;;;;20.73;19.23;;;42.00;5.40;;;;;;6250231;28;20224;-65
2022/03/13 11:25:19;;;;;;;20.42;18.80;;;41.30;5.40;;;;;;6250997;28;20246;-65
2022/03/13 11:28:23;;;;;;;20.95;19.55;;;40.80;5.50;;;;;;6250509;28;20239;-65
2022/03/13 11:31:31;;;;;;;19.88;18.42;;;41.00;5.50;;;;;;6241262;28;20232;-65
2022/03/13 11:34:34;;;;;;;20.83;19.33;;;40.70;5.50;;;;;;6250513;28;20228;-65
2022/03/13 11:37:40;;;;;;;21.25;19.55;;;41.00;6.10;;;;;;6250415;28;20304;-65
2022/03/13 11:40:43;;;;;;;23.15;21.45;;;41.90;5.40;;;;;;6250080;28;20246;-66
2022/03/13 11:43:51;;;;;;;19.95;18.55;;;42.60;6.70;;;;;;6249176;28;20553;-65
2022/03/13 11:46:56;;;;;;;21.15;19.65;;;42.10;5.90;;;;;;6249732;28;20223;-66
2022/03/13 11:50:09;;;;;;;20.60;19.17;;;38.90;6.00;;;;;;6256130;28;20234;-65
2022/03/13 11:53:21;;;;;;;19.80;18.40;;;39.70;5.60;;;;;;6250380;28;20228;-65
2022/03/13 11:56:48;;;;;;;21.13;19.63;;;40.70;5.60;;;;;;6251322;28;20268;-65
2022/03/13 12:00:30;;;;;;;19.27;17.90;;;41.90;5.30;;;;;;6250521;28;20228;-64
2022/03/13 12:03:34;;;;;;;19.35;17.95;;;39.30;5.10;;;;;;6249983;28;20648;-65
2022/03/13 12:06:40;;;;;;;19.23;17.85;;;39.10;5.70;;;;;;6249329;28;20727;-65
2022/03/13 12:09:45;;;;;;;19.73;18.33;;;39.90;5.50;;;;;;6250019;28;20242;-65
2022/03/13 12:13:04;;;;;;;18.23;16.80;;;39.10;5.60;;;;;;6249731;28;20702;-64
2022/03/13 12:16:12;;;;;;;19.70;18.25;;;39.80;5.40;;;;;;6249752;28;20220;-65
2022/03/13 12:19:18;;;;;;;18.75;17.27;;;40.30;5.20;;;;;;6249574;28;20247;-64
2022/03/13 12:22:25;;;;;;;18.05;16.77;;;40.90;5.40;;;;;;6250065;28;20235;-65
2022/03/13 12:25:31;;;;;;;17.33;16.02;;;41.80;5.10;;;;;;6249810;28;20223;-65
2022/03/13 12:28:35;;;;;;;17.33;16.02;;;42.10;4.90;;;;;;6251746;28;20239;-64
2022/03/13 12:31:42;;;;;;;16.70;15.50;;;35.60;5.50;;;;;;6254685;28;20323;-64
2022/03/13 12:34:46;;;;;;;15.77;14.45;;;34.90;6.20;;;;;;6255150;28;20570;-64
2022/03/13 12:37:55;;;;;;;16.67;15.38;;;35.50;6.20;;;;;;6254358;28;20231;-64
2022/03/13 12:41:03;;;;;;;16.00;14.80;;;37.00;6.10;;;;;;6254740;28;20236;-62
2022/03/13 12:44:06;;;;;;;16.88;15.60;;;36.50;5.90;;;;;;6254297;28;20228;-65
2022/03/13 12:47:09;;;;;;;16.60;15.35;;;34.90;6.50;;;;;;6248969;28;20220;-64
2022/03/13 12:50:14;;;;;;;16.35;15.25;;;36.80;5.90;;;;;;6253183;28;20223;-65
2022/03/13 12:53:22;;;;;;;17.85;16.42;;;38.50;5.60;;;;;;6253483;28;20236;-65
2022/03/13 12:56:30;;;;;;;15.90;14.48;;;36.10;5.80;;;;;;6253280;28;20239;-64
2022/03/13 12:59:36;;;;;;;15.48;14.38;;;37.20;5.70;;;;;;6253636;28;20239;-63
2022/03/13 13:02:39;;;;;;;16.35;15.05;;;37.40;5.80;;;;;;6253432;28;20247;-63
2022/03/13 13:05:50;;;;;;;16.40;15.23;;;37.70;5.70;;;;;;6253713;28;20309;-63
2022/03/13 13:08:53;;;;;;;17.45;16.05;;;35.90;6.10;;;;;;6253945;28;20232;-63
2022/03/13 13:11:58;;;;;;;17.08;15.68;;;35.40;6.10;;;;;;6253632;28;20680;-63
2022/03/13 13:15:03;;;;;;;17.27;15.90;;;35.90;6.30;;;;;;6253243;28;20235;-64
2022/03/13 13:18:06;;;;;;;16.83;15.43;;;37.20;5.90;;;;;;6253503;28;20219;-63
2022/03/13 13:21:10;;;;;;;15.60;14.43;;;36.20;6.00;;;;;;6253306;28;20583;-63
2022/03/13 13:24:21;;;;;;;15.48;14.40;;;37.30;5.80;;;;;;6253927;28;20241;-63
2022/03/13 13:27:34;;;;;;;16.67;15.38;;;38.60;5.60;;;;;;6255580;28;20289;-63
2022/03/13 13:30:38;;;;;;;15.43;14.32;;;38.90;5.50;;;;;;6253054;28;20285;-64
2022/03/13 13:33:41;;;;;;;16.10;14.90;;;39.00;5.40;;;;;;6256539;28;20235;-65
2022/03/13 13:36:45;;;;;;;16.15;15.00;;;37.60;5.40;;;;;;6252104;28;20235;-64
2022/03/13 13:39:48;;;;;;;16.20;15.00;;;36.00;5.70;;;;;;6252884;28;20242;-64
2022/03/13 13:42:57;;;;;;;16.35;15.15;;;32.70;6.90;;;;;;6252661;28;20227;-64
2022/03/13 13:46:06;;;;;;;17.27;15.77;;;30.40;7.50;;;;;;6252275;28;20235;-65
2022/03/13 13:49:11;;;;;;;17.00;15.33;;;28.40;8.40;;;;;;6253186;28;20556;-64
2022/03/13 13:52:14;;;;;;;16.90;15.57;;;26.30;9.10;;;;;;6256188;28;20734;-64
2022/03/13 13:55:21;;;;;;;14.87;13.60;;;24.30;10.10;;;;;;6256337;28;20663;-63
2022/03/13 13:58:30;;;;;;;16.00;14.70;;;22.40;10.70;;;;;;6254888;28;20665;-64
2022/03/13 14:01:34;;;;;;;16.17;14.67;;;20.50;11.90;;;;;;6252578;28;20236;-63
2022/03/13 14:04:39;;;;;;;14.90;13.50;;;18.60;12.80;;;;;;6252886;28;20243;-63
2022/03/13 14:07:42;;;;;;;14.93;13.63;;;17.50;13.70;;;;;;6252580;28;20247;-62
2022/03/13 14:10:46;;;;;;;13.40;12.20;;;16.70;14.10;;;;;;6252670;28;20478;-62
2022/03/13 14:13:51;;;;;;;14.10;12.70;;;15.90;14.50;;;;;;6252318;28;20479;-63
2022/03/13 14:16:54;;;;;;;13.37;11.97;;;15.20;15.20;;;;;;6252939;28;20475;-65
2022/03/13 14:19:57;;;;;;;14.97;13.47;;;14.80;15.60;;;;;;6251526;28;20578;-64
2022/03/13 14:23:01;;;;;;;14.03;12.70;;;14.20;16.00;;;;;;6251752;28;20467;-64
2022/03/13 14:26:04;;;;;;;13.60;12.30;;;13.80;16.80;;;;;;6251785;28;20471;-63
2022/03/13 14:29:08;;;;;;;13.20;11.80;;;13.50;16.90;;;;;;6251526;28;20486;-63
2022/03/13 14:32:12;;;;;;;12.27;10.93;;;13.30;17.00;;;;;;6248732;28;20966;-63
2022/03/13 14:35:15;;;;;;;13.63;12.33;;;13.00;17.20;;;;;;6251518;28;20483;-63
2022/03/13 14:38:19;;;;;;;13.43;12.10;;;13.00;17.20;;;;;;6251106;28;20468;-63
2022/03/13 14:41:24;;;;;;;12.50;11.30;;;13.10;17.20;;;;;;6251144;28;20597;-63
2022/03/13 14:44:28;;;;;;;12.27;10.80;;;13.10;17.10;;;;;;6251193;28;20474;-64
2022/03/13 14:47:31;;;;;;;12.63;11.53;;;13.00;17.00;;;;;;6251355;28;20228;-65
2022/03/13 14:50:54;;;;;;;12.03;11.00;;;13.20;16.90;;;;;;6251897;28;20556;-65
2022/03/13 14:53:57;;;;;;;11.40;10.17;;;13.10;17.90;;;;;;6252165;28;20490;-65
2022/03/13 14:57:01;;;;;;;12.03;10.83;;;13.20;19.00;;;;;;6252922;28;20467;-65
2022/03/13 15:00:09;;;;;;;12.70;11.50;;;13.10;18.20;;;;;;6253329;28;20510;-65
2022/03/13 15:03:12;;;;;;;12.67;11.47;;;13.00;18.10;;;;;;6251837;28;20454;-66
2022/03/13 15:06:16;;;;;;;14.03;11.90;;;13.00;18.40;;;;;;6252140;28;20529;-67
2022/03/13 15:09:20;;;;;;;13.33;11.23;;;12.90;17.90;;;;;;6251498;28;20474;-66
2022/03/13 15:12:27;;;;;;;11.30;10.20;;;12.80;17.80;;;;;;6251320;28;20464;-66
2022/03/13 15:15:32;;;;;;;11.20;10.30;;;12.80;17.60;;;;;;6245879;28;20475;-66
2022/03/13 15:18:35;;;;;;;12.83;11.53;;;12.80;17.70;;;;;;6250342;28;20591;-66
2022/03/13 15:21:38;;;;;;;11.90;10.83;;;12.70;17.80;;;;;;6251198;28;20462;-66
2022/03/13 15:24:41;;;;;;;12.73;11.47;;;12.70;18.00;;;;;;6252151;28;20467;-66
2022/03/13 15:27:46;;;;;;;12.57;11.40;;;12.80;18.00;;;;;;6250881;28;20467;-66
2022/03/13 15:30:55;;;;;;;13.87;12.50;;;12.80;17.90;;;;;;6253640;28;20478;-66
2022/03/13 15:34:01;;;;;;;11.50;10.50;;;12.90;17.90;;;;;;6252521;28;20467;-67
2022/03/13 15:37:04;;;;;;;13.00;11.20;;;12.90;17.80;;;;;;6249980;28;20475;-66
2022/03/13 15:40:09;;;;;;;14.00;11.57;;;12.80;18.00;;;;;;6252257;28;20486;-66
2022/03/13 15:43:13;;;;;;;12.37;11.07;;;12.50;18.00;;;;;;6250647;28;20486;-67
2022/03/13 15:46:17;;;;;;;10.90;9.90;;;12.50;18.20;;;;;;6243042;28;20510;-66